Time;durP1;ratioP1;P1;durP2;ratioP2;P2;SDS_P1;SDS_P2;PMS_P1;PMS_P2;Temp;Humidity;BMP_temperature;BMP_pressure;BME280_temperature;BME280_humidity;BME280_pressure;Samples;Min_cycle;Max_cycle;Signal;HPM_P1;HPM_P2
2023/09/28 00:00:49;;;;;;;;;;;18.10;99.90;;;;;;5114658;28;20325;-42
2023/09/28 00:03:14;;;;;;;;;;;18.00;99.90;;;;;;5116600;28;19924;-42
2023/09/28 00:05:40;;;;;;;;;;;18.00;99.90;;;;;;5118425;28;20287;-43
2023/09/28 00:08:06;;;;;;;;;;;18.10;99.90;;;;;;5118299;27;20317;-42
2023/09/28 00:10:31;;;;;;;;;;;18.00;99.90;;;;;;5118755;28;19924;-42
2023/09/28 00:12:57;;;;;;;;;;;18.00;99.90;;;;;;5118306;28;19930;-43
2023/09/28 00:15:26;;;;;;;;;;;18.00;99.90;;;;;;5118242;28;19930;-42
2023/09/28 00:17:52;;;;;;;;;;;18.00;99.90;;;;;;5118425;28;20006;-42
2023/09/28 00:20:19;;;;;;;;;;;18.00;99.90;;;;;;5118311;27;20378;-42
2023/09/28 00:22:48;;;;;;;;;;;18.00;99.90;;;;;;5117085;28;19959;-42
2023/09/28 00:25:16;;;;;;;;;;;18.00;99.90;;;;;;5118349;28;19928;-42
2023/09/28 00:27:45;;;;;;;;;;;17.90;99.90;;;;;;5118133;28;19931;-42
2023/09/28 00:30:18;;;;;;;;;;;17.90;99.90;;;;;;5118005;28;19924;-42
2023/09/28 00:32:44;;;;;;;;;;;17.90;99.90;;;;;;5118007;28;20365;-42
2023/09/28 00:35:10;;;;;;;;;;;18.00;99.90;;;;;;5117875;28;19927;-42
2023/09/28 00:37:35;;;;;;;;;;;17.90;99.90;;;;;;5117870;28;20027;-42
2023/09/28 00:40:08;;;;;;;;;;;18.00;99.90;;;;;;5117809;28;20263;-42
2023/09/28 00:42:33;;;;;;;;;;;17.90;99.90;;;;;;5117865;28;19932;-43
2023/09/28 00:44:59;;;;;;;;;;;17.90;99.90;;;;;;5116751;28;20375;-43
2023/09/28 00:47:25;;;;;;;;;;;18.00;99.90;;;;;;5117511;28;20338;-42
2023/09/28 00:49:51;;;;;;;;;;;17.90;99.90;;;;;;5117454;28;19924;-42
2023/09/28 00:52:17;;;;;;;;;;;17.90;99.90;;;;;;5117492;28;19977;-43
2023/09/28 00:54:45;;;;;;;;;;;17.90;99.90;;;;;;5117509;28;19927;-42
2023/09/28 00:57:11;;;;;;;;;;;18.00;99.90;;;;;;5117780;28;19930;-42
2023/09/28 00:59:36;;;;;;;;;;;18.00;99.90;;;;;;5117285;28;20010;-42
2023/09/28 01:02:02;;;;;;;;;;;18.00;99.90;;;;;;5117316;28;19927;-44
2023/09/28 01:04:28;;;;;;;;;;;18.00;99.90;;;;;;5117070;28;19982;-44
2023/09/28 01:06:54;;;;;;;;;;;18.00;99.90;;;;;;5117333;28;19934;-43
2023/09/28 01:09:21;;;;;;;;;;;18.00;99.90;;;;;;5116416;28;19973;-42
2023/09/28 01:11:47;;;;;;;;;;;18.00;99.90;;;;;;5117086;28;19924;-44
2023/09/28 01:14:13;;;;;;;;;;;18.00;99.90;;;;;;5116873;28;20332;-42
2023/09/28 01:16:39;;;;;;;;;;;18.00;99.90;;;;;;5117143;28;19924;-42
2023/09/28 01:19:06;;;;;;;;;;;18.00;99.90;;;;;;5116847;28;19924;-42
2023/09/28 01:21:31;;;;;;;;;;;18.00;99.90;;;;;;5117030;28;19923;-42
2023/09/28 01:23:57;;;;;;;;;;;18.00;99.90;;;;;;5117009;28;19931;-42
2023/09/28 01:26:23;;;;;;;;;;;18.00;99.90;;;;;;5116036;28;19924;-42
2023/09/28 01:28:48;;;;;;;;;;;17.90;99.90;;;;;;5116837;28;20065;-43
2023/09/28 01:31:14;;;;;;;;;;;17.90;99.90;;;;;;5116743;28;19924;-42
2023/09/28 01:33:39;;;;;;;;;;;18.00;99.90;;;;;;5116639;28;20285;-43
2023/09/28 01:36:05;;;;;;;;;;;18.00;99.90;;;;;;5117000;28;19927;-43
2023/09/28 01:39:00;;;;;;;;;;;17.90;99.90;;;;;;5116731;28;19924;-42
2023/09/28 01:41:26;;;;;;;;;;;17.90;99.90;;;;;;5102932;28;20390;-43
2023/09/28 01:43:51;;;;;;;;;;;17.90;99.90;;;;;;5116344;28;20016;-43
2023/09/28 01:46:17;;;;;;;;;;;17.90;99.90;;;;;;5116914;28;20282;-43
2023/09/28 01:48:42;;;;;;;;;;;17.80;99.90;;;;;;5116433;28;20053;-43
2023/09/28 01:51:08;;;;;;;;;;;17.80;99.90;;;;;;5116340;28;19923;-42
2023/09/28 01:53:34;;;;;;;;;;;17.80;99.90;;;;;;5116422;28;19928;-42
2023/09/28 01:56:01;;;;;;;;;;;17.80;99.90;;;;;;5116369;28;20317;-42
2023/09/28 01:58:26;;;;;;;;;;;17.80;99.90;;;;;;5116065;28;20378;-42
2023/09/28 02:00:52;;;;;;;;;;;17.80;99.90;;;;;;5115590;28;19928;-43
2023/09/28 02:03:17;;;;;;;;;;;17.80;99.90;;;;;;5116479;28;19924;-42
2023/09/28 02:05:43;;;;;;;;;;;17.80;99.90;;;;;;5115077;28;19927;-42
2023/09/28 02:08:09;;;;;;;;;;;17.80;99.90;;;;;;5116102;28;19923;-42
2023/09/28 02:10:34;;;;;;;;;;;17.80;99.90;;;;;;5116222;28;19924;-42
2023/09/28 02:13:00;;;;;;;;;;;17.80;99.90;;;;;;5115977;28;19924;-43
2023/09/28 02:15:25;;;;;;;;;;;17.90;99.90;;;;;;5115678;28;19927;-42
2023/09/28 02:17:51;;;;;;;;;;;17.90;99.90;;;;;;5115277;28;19959;-42
2023/09/28 02:20:22;;;;;;;;;;;17.90;99.90;;;;;;5114815;28;19924;-42
2023/09/28 02:22:48;;;;;;;;;;;17.90;99.90;;;;;;5116249;28;19931;-42
2023/09/28 02:25:15;;;;;;;;;;;18.00;99.90;;;;;;5115129;28;19928;-42
2023/09/28 02:27:41;;;;;;;;;;;17.90;99.90;;;;;;5115729;28;20378;-42
2023/09/28 02:30:08;;;;;;;;;;;17.90;99.90;;;;;;5115412;28;20018;-42
2023/09/28 02:32:34;;;;;;;;;;;18.00;99.90;;;;;;5114761;28;19977;-45
2023/09/28 02:34:59;;;;;;;;;;;18.00;99.90;;;;;;5115999;28;19923;-42
2023/09/28 02:37:25;;;;;;;;;;;18.00;99.90;;;;;;5115504;28;19924;-42
2023/09/28 02:39:50;;;;;;;;;;;18.00;99.90;;;;;;5115415;28;19928;-42
2023/09/28 02:42:16;;;;;;;;;;;18.10;99.90;;;;;;5115264;28;19924;-43
2023/09/28 02:44:41;;;;;;;;;;;18.10;99.90;;;;;;5115136;28;19931;-42
2023/09/28 02:47:09;;;;;;;;;;;18.10;99.90;;;;;;5115386;28;19923;-42
2023/09/28 02:49:34;;;;;;;;;;;18.10;99.90;;;;;;5115326;28;19923;-43
2023/09/28 02:52:03;;;;;;;;;;;18.10;99.90;;;;;;5115124;28;19930;-42
2023/09/28 02:54:30;;;;;;;;;;;18.10;99.90;;;;;;5115341;28;19924;-42
2023/09/28 02:56:55;;;;;;;;;;;18.10;99.90;;;;;;5114978;28;20000;-42
2023/09/28 02:59:24;;;;;;;;;;;18.10;99.90;;;;;;5114895;28;19967;-43
2023/09/28 03:01:51;;;;;;;;;;;18.10;99.90;;;;;;5115134;28;20432;-42
2023/09/28 03:04:17;;;;;;;;;;;18.10;99.90;;;;;;5115120;28;19923;-42
2023/09/28 03:06:44;;;;;;;;;;;18.10;99.90;;;;;;5115164;28;19931;-42
2023/09/28 03:09:11;;;;;;;;;;;18.10;99.90;;;;;;5114873;28;19979;-42
2023/09/28 03:11:39;;;;;;;;;;;18.10;99.90;;;;;;5114694;28;19924;-42
2023/09/28 03:14:05;;;;;;;;;;;18.10;99.90;;;;;;5114954;28;19924;-42
2023/09/28 03:16:31;;;;;;;;;;;18.10;99.90;;;;;;5114930;28;19977;-42
2023/09/28 03:18:57;;;;;;;;;;;18.00;99.90;;;;;;5114753;28;19923;-42
2023/09/28 03:21:22;;;;;;;;;;;18.00;99.90;;;;;;5114747;28;19945;-42
2023/09/28 03:23:49;;;;;;;;;;;18.00;99.90;;;;;;5114611;28;19924;-43
2023/09/28 03:26:15;;;;;;;;;;;18.00;99.90;;;;;;5114639;28;19989;-42
2023/09/28 03:28:41;;;;;;;;;;;18.00;99.90;;;;;;5114750;28;20371;-42
2023/09/28 03:31:07;;;;;;;;;;;18.00;99.90;;;;;;5113563;28;19924;-43
2023/09/28 03:33:32;;;;;;;;;;;18.00;99.90;;;;;;5113886;28;19924;-43
2023/09/28 03:35:58;;;;;;;;;;;18.00;99.90;;;;;;5114462;28;19924;-42
2023/09/28 03:38:24;;;;;;;;;;;18.00;99.90;;;;;;5114707;28;19981;-42
2023/09/28 03:40:49;;;;;;;;;;;18.00;99.90;;;;;;5114416;28;19931;-42
2023/09/28 03:43:15;;;;;;;;;;;18.00;99.90;;;;;;5114647;28;19931;-42
2023/09/28 03:45:41;;;;;;;;;;;18.00;99.90;;;;;;5114910;28;19928;-42
2023/09/28 03:48:07;;;;;;;;;;;18.00;99.90;;;;;;5114551;28;20363;-42
2023/09/28 03:50:32;;;;;;;;;;;17.90;99.90;;;;;;5114425;28;20022;-43
2023/09/28 03:52:58;;;;;;;;;;;17.90;99.90;;;;;;5114138;28;19924;-42
2023/09/28 03:55:23;;;;;;;;;;;18.00;99.90;;;;;;5114428;28;20463;-42
2023/09/28 03:57:50;;;;;;;;;;;17.90;99.90;;;;;;5114289;28;19930;-43
2023/09/28 04:00:17;;;;;;;;;;;17.90;99.90;;;;;;5114860;28;20346;-42
2023/09/28 04:02:47;;;;;;;;;;;17.90;99.90;;;;;;5114623;28;20298;-42
2023/09/28 04:05:13;;;;;;;;;;;17.80;99.90;;;;;;5113349;28;19989;-42
2023/09/28 04:07:39;;;;;;;;;;;17.80;99.90;;;;;;5114337;28;19933;-42
2023/09/28 04:10:05;;;;;;;;;;;17.80;99.90;;;;;;5114189;28;19923;-43
2023/09/28 04:12:31;;;;;;;;;;;17.80;99.90;;;;;;5114342;28;19989;-43
2023/09/28 04:14:56;;;;;;;;;;;17.80;99.90;;;;;;5113357;28;20419;-42
2023/09/28 04:17:22;;;;;;;;;;;17.70;99.90;;;;;;5114221;28;19946;-42
2023/09/28 04:19:48;;;;;;;;;;;17.70;99.90;;;;;;5114121;28;20317;-43
2023/09/28 04:22:14;;;;;;;;;;;17.70;99.90;;;;;;5114134;28;20374;-42
2023/09/28 04:24:40;;;;;;;;;;;17.70;99.90;;;;;;5114120;28;19930;-43
2023/09/28 04:27:05;;;;;;;;;;;17.60;99.90;;;;;;5114167;28;20026;-42
2023/09/28 04:29:31;;;;;;;;;;;17.60;99.90;;;;;;5114113;28;19924;-43
2023/09/28 04:31:56;;;;;;;;;;;17.60;99.90;;;;;;5114081;28;19924;-42
2023/09/28 04:34:22;;;;;;;;;;;17.60;99.90;;;;;;5114254;28;20282;-43
2023/09/28 04:36:49;;;;;;;;;;;17.60;99.90;;;;;;5114009;28;19924;-42
2023/09/28 04:39:15;;;;;;;;;;;17.50;99.90;;;;;;5113977;28;20336;-43
2023/09/28 04:41:41;;;;;;;;;;;17.50;99.90;;;;;;5114043;28;19976;-42
2023/09/28 04:44:07;;;;;;;;;;;17.50;99.90;;;;;;5113967;28;19947;-42
2023/09/28 04:46:32;;;;;;;;;;;17.50;99.90;;;;;;5112936;28;19930;-42
2023/09/28 04:48:59;;;;;;;;;;;17.50;99.90;;;;;;5115440;28;19924;-43
2023/09/28 04:51:24;;;;;;;;;;;17.50;99.90;;;;;;5117604;28;19930;-42
2023/09/28 04:53:50;;;;;;;;;;;17.50;99.90;;;;;;5117396;28;19924;-42
2023/09/28 04:56:15;;;;;;;;;;;17.40;99.90;;;;;;5117564;28;19924;-43
2023/09/28 04:58:41;;;;;;;;;;;17.40;99.90;;;;;;5117458;28;19923;-43
2023/09/28 05:01:07;;;;;;;;;;;17.50;99.90;;;;;;5116347;28;19924;-43
2023/09/28 05:03:33;;;;;;;;;;;17.50;99.90;;;;;;5116617;28;19924;-42
2023/09/28 05:05:59;;;;;;;;;;;17.40;99.90;;;;;;5117361;28;20321;-42
2023/09/28 05:08:24;;;;;;;;;;;17.50;99.90;;;;;;5117066;28;19924;-43
2023/09/28 05:10:50;;;;;;;;;;;17.50;99.90;;;;;;5117218;27;19923;-43
2023/09/28 05:13:16;;;;;;;;;;;17.40;99.90;;;;;;5117197;28;19924;-42
2023/09/28 05:15:41;;;;;;;;;;;17.40;99.90;;;;;;5117127;27;19924;-43
2023/09/28 05:18:07;;;;;;;;;;;17.40;99.90;;;;;;5117032;28;20014;-42
2023/09/28 05:20:33;;;;;;;;;;;17.50;99.90;;;;;;5116964;28;20328;-42
2023/09/28 05:22:58;;;;;;;;;;;17.50;99.90;;;;;;5117027;28;19924;-42
2023/09/28 05:25:25;;;;;;;;;;;17.40;99.90;;;;;;5116720;28;19928;-42
2023/09/28 05:27:51;;;;;;;;;;;17.40;99.90;;;;;;5117524;28;20292;-42
2023/09/28 05:30:17;;;;;;;;;;;17.40;99.90;;;;;;5116816;28;20002;-43
2023/09/28 05:32:42;;;;;;;;;;;17.30;99.90;;;;;;5116879;28;19928;-42
2023/09/28 05:35:08;;;;;;;;;;;17.30;99.90;;;;;;5116736;28;20394;-42
2023/09/28 05:37:34;;;;;;;;;;;17.30;99.90;;;;;;5116522;27;19927;-44
2023/09/28 05:40:00;;;;;;;;;;;17.30;99.90;;;;;;5116511;27;19924;-42
2023/09/28 05:42:25;;;;;;;;;;;17.30;99.90;;;;;;5116652;28;19924;-42
2023/09/28 05:44:52;;;;;;;;;;;17.30;99.90;;;;;;5116694;28;20010;-42
2023/09/28 05:47:20;;;;;;;;;;;17.30;99.90;;;;;;5116475;28;19924;-42
2023/09/28 05:49:46;;;;;;;;;;;17.30;99.90;;;;;;5115518;28;20008;-42
2023/09/28 05:52:12;;;;;;;;;;;17.30;99.90;;;;;;5116194;28;19924;-42
2023/09/28 05:54:37;;;;;;;;;;;17.30;99.90;;;;;;5116540;28;19924;-42
2023/09/28 05:57:04;;;;;;;;;;;17.30;99.90;;;;;;5116418;28;19981;-42
2023/09/28 05:59:29;;;;;;;;;;;17.30;99.90;;;;;;5115753;28;19930;-42
2023/09/28 06:01:55;;;;;;;;;;;17.30;99.90;;;;;;5114642;28;19924;-42
2023/09/28 06:04:21;;;;;;;;;;;17.30;99.90;;;;;;5116262;28;19923;-42
2023/09/28 06:06:50;;;;;;;;;;;17.30;99.90;;;;;;5115920;28;20390;-42
2023/09/28 06:09:19;;;;;;;;;;;17.30;99.90;;;;;;5115929;28;19935;-42
2023/09/28 06:11:45;;;;;;;;;;;17.30;99.90;;;;;;5116066;28;19927;-42
2023/09/28 06:14:13;;;;;;;;;;;17.30;99.90;;;;;;5116403;28;20296;-42
2023/09/28 06:16:40;;;;;;;;;;;17.30;99.90;;;;;;5116085;28;19924;-42
2023/09/28 06:19:06;;;;;;;;;;;17.30;99.90;;;;;;5115830;28;19924;-42
2023/09/28 06:21:31;;;;;;;;;;;17.30;99.90;;;;;;5115654;28;20437;-42
2023/09/28 06:23:57;;;;;;;;;;;17.30;99.90;;;;;;5115881;28;20324;-41
2023/09/28 06:26:23;;;;;;;;;;;17.30;99.90;;;;;;5115727;28;19931;-42
2023/09/28 06:28:48;;;;;;;;;;;17.30;99.90;;;;;;5115719;28;19928;-42
2023/09/28 06:31:15;;;;;;;;;;;17.30;99.90;;;;;;5115582;28;20390;-42
2023/09/28 06:33:42;;;;;;;;;;;17.30;99.90;;;;;;5115751;28;20401;-42
2023/09/28 06:36:08;;;;;;;;;;;17.30;99.90;;;;;;5115336;28;19930;-42
2023/09/28 06:38:33;;;;;;;;;;;17.30;99.90;;;;;;5115186;28;19928;-42
2023/09/28 06:40:59;;;;;;;;;;;17.30;99.90;;;;;;5115704;28;20390;-42
2023/09/28 06:43:25;;;;;;;;;;;17.30;99.90;;;;;;5115340;28;19927;-42
2023/09/28 06:45:50;;;;;;;;;;;17.30;99.90;;;;;;5115243;28;19924;-42
2023/09/28 06:48:18;;;;;;;;;;;17.30;99.90;;;;;;5115105;28;19924;-42
2023/09/28 06:50:44;;;;;;;;;;;17.30;99.90;;;;;;5115110;27;19986;-42
2023/09/28 06:53:10;;;;;;;;;;;17.30;99.90;;;;;;5115025;28;19975;-42
2023/09/28 06:55:36;;;;;;;;;;;17.30;99.90;;;;;;5115537;28;20007;-41
2023/09/28 06:58:06;;;;;;;;;;;17.30;99.90;;;;;;5115217;28;19923;-42
2023/09/28 07:00:32;;;;;;;;;;;17.30;99.90;;;;;;5115178;28;20038;-42
2023/09/28 07:02:57;;;;;;;;;;;17.30;99.90;;;;;;5114938;28;19967;-42
2023/09/28 07:05:23;;;;;;;;;;;17.30;99.90;;;;;;5115027;28;19982;-42
2023/09/28 07:07:49;;;;;;;;;;;17.30;99.90;;;;;;5115090;28;19923;-43
2023/09/28 07:10:14;;;;;;;;;;;17.40;99.90;;;;;;5114752;28;19924;-42
2023/09/28 07:12:40;;;;;;;;;;;17.40;99.90;;;;;;5114905;28;19924;-42
2023/09/28 07:15:06;;;;;;;;;;;17.40;99.90;;;;;;5114958;28;19938;-42
2023/09/28 07:17:33;;;;;;;;;;;17.40;99.90;;;;;;5114775;28;20299;-42
2023/09/28 07:19:58;;;;;;;;;;;17.50;99.90;;;;;;5114817;28;20380;-43
2023/09/28 07:22:24;;;;;;;;;;;17.50;99.90;;;;;;5114846;28;20014;-43
2023/09/28 07:24:49;;;;;;;;;;;17.50;99.90;;;;;;5114850;28;19990;-42
2023/09/28 07:27:16;;;;;;;;;;;17.50;99.90;;;;;;5114690;28;20409;-43
2023/09/28 07:29:41;;;;;;;;;;;17.60;99.90;;;;;;5114718;28;19931;-43
2023/09/28 07:32:08;;;;;;;;;;;17.50;99.90;;;;;;5114614;28;19924;-42
2023/09/28 07:34:34;;;;;;;;;;;17.60;99.90;;;;;;5114650;28;19931;-42
2023/09/28 07:36:59;;;;;;;;;;;17.60;99.90;;;;;;5114655;28;20339;-42
2023/09/28 07:39:25;;;;;;;;;;;17.60;99.90;;;;;;5114715;28;20018;-42
2023/09/28 07:41:51;;;;;;;;;;;17.70;99.90;;;;;;5114612;28;19924;-42
2023/09/28 07:44:18;;;;;;;;;;;17.70;99.90;;;;;;5114560;28;19924;-42
2023/09/28 07:46:45;;;;;;;;;;;17.80;99.90;;;;;;5114567;28;19943;-44
2023/09/28 07:49:10;;;;;;;;;;;17.80;99.90;;;;;;5114372;28;19931;-43
2023/09/28 07:51:36;;;;;;;;;;;17.80;99.90;;;;;;5114548;28;20359;-43
2023/09/28 07:54:01;;;;;;;;;;;17.90;99.90;;;;;;5114351;28;20453;-42
2023/09/28 07:56:27;;;;;;;;;;;17.90;99.90;;;;;;5114387;28;19969;-43
2023/09/28 07:58:52;;;;;;;;;;;18.00;99.90;;;;;;5114302;28;20290;-42
2023/09/28 08:01:18;;;;;;;;;;;18.00;99.90;;;;;;5114532;28;19978;-42
2023/09/28 08:03:44;;;;;;;;;;;18.00;99.90;;;;;;5114257;28;19935;-42
2023/09/28 08:06:10;;;;;;;;;;;18.10;99.90;;;;;;5114452;28;19928;-43
2023/09/28 08:08:37;;;;;;;;;;;18.10;99.90;;;;;;5114281;28;19924;-42
2023/09/28 08:11:02;;;;;;;;;;;18.20;99.90;;;;;;5114550;28;19979;-42
2023/09/28 08:13:28;;;;;;;;;;;18.20;99.90;;;;;;5114227;28;20286;-42
2023/09/28 08:15:54;;;;;;;;;;;18.20;99.90;;;;;;5114146;28;20001;-42
2023/09/28 08:18:19;;;;;;;;;;;18.30;99.90;;;;;;5113099;28;19947;-42
2023/09/28 08:20:46;;;;;;;;;;;18.30;99.90;;;;;;5114248;28;19924;-43
2023/09/28 08:23:11;;;;;;;;;;;18.30;99.90;;;;;;5114618;28;20046;-43
2023/09/28 08:25:37;;;;;;;;;;;18.30;99.90;;;;;;5118249;28;19977;-42
2023/09/28 08:28:02;;;;;;;;;;;18.30;99.90;;;;;;5117998;28;20352;-43
2023/09/28 08:30:28;;;;;;;;;;;18.30;99.90;;;;;;5117802;28;19924;-42
2023/09/28 08:32:54;;;;;;;;;;;18.30;99.90;;;;;;5117775;28;19981;-42
2023/09/28 08:35:20;;;;;;;;;;;18.40;99.90;;;;;;5118273;28;20340;-42
2023/09/28 08:37:45;;;;;;;;;;;18.40;99.90;;;;;;5117190;28;19923;-42
2023/09/28 08:40:13;;;;;;;;;;;18.40;99.90;;;;;;5117816;28;20332;-43
2023/09/28 08:42:41;;;;;;;;;;;18.40;99.90;;;;;;5117941;28;19977;-42
2023/09/28 08:45:08;;;;;;;;;;;18.50;99.90;;;;;;5117762;28;19931;-42
2023/09/28 08:47:39;;;;;;;;;;;18.50;99.90;;;;;;5116382;28;20283;-42
2023/09/28 08:50:05;;;;;;;;;;;18.60;99.90;;;;;;5117769;28;19931;-42
2023/09/28 08:52:31;;;;;;;;;;;18.60;99.90;;;;;;5117543;28;20010;-42
2023/09/28 08:54:58;;;;;;;;;;;18.60;99.90;;;;;;5117711;28;19967;-42
2023/09/28 08:57:25;;;;;;;;;;;18.60;99.90;;;;;;5117483;28;20403;-42
2023/09/28 08:59:52;;;;;;;;;;;18.60;99.90;;;;;;5117292;28;19923;-42
2023/09/28 09:02:17;;;;;;;;;;;18.60;99.90;;;;;;5117334;28;19924;-42
2023/09/28 09:04:43;;;;;;;;;;;18.60;99.90;;;;;;5117414;28;19924;-42
2023/09/28 09:07:09;;;;;;;;;;;18.60;99.90;;;;;;5116210;28;20286;-42
2023/09/28 09:09:40;;;;;;;;;;;18.60;99.90;;;;;;5117302;28;19975;-43
2023/09/28 09:12:09;;;;;;;;;;;18.70;99.90;;;;;;5117134;28;20371;-43
2023/09/28 09:14:34;;;;;;;;;;;18.70;99.90;;;;;;5116989;28;19931;-43
2023/09/28 09:17:00;;;;;;;;;;;18.70;99.90;;;;;;5116884;28;19930;-42
2023/09/28 09:19:29;;;;;;;;;;;18.70;99.90;;;;;;5117037;28;19923;-42
2023/09/28 09:21:54;;;;;;;;;;;18.80;99.90;;;;;;5116251;28;19935;-43
2023/09/28 09:24:20;;;;;;;;;;;18.80;99.90;;;;;;5116835;28;19924;-42
2023/09/28 09:26:47;;;;;;;;;;;18.80;99.90;;;;;;5116935;28;19928;-42
2023/09/28 09:29:14;;;;;;;;;;;18.80;99.90;;;;;;5115810;28;19923;-43
2023/09/28 09:31:40;;;;;;;;;;;18.80;99.90;;;;;;5116023;28;20397;-43
2023/09/28 09:34:11;;;;;;;;;;;18.80;99.90;;;;;;5116775;28;19923;-42
2023/09/28 09:36:37;;;;;;;;;;;18.80;99.90;;;;;;5116793;28;19928;-43
2023/09/28 09:39:03;;;;;;;;;;;18.80;99.90;;;;;;5116742;28;20382;-42
2023/09/28 09:41:29;;;;;;;;;;;18.80;99.90;;;;;;5116632;28;19924;-43
2023/09/28 09:43:57;;;;;;;;;;;18.80;99.90;;;;;;5116610;28;20018;-42
2023/09/28 09:46:24;;;;;;;;;;;18.80;99.90;;;;;;5116655;28;19924;-42
2023/09/28 09:48:50;;;;;;;;;;;18.80;99.90;;;;;;5116835;28;20382;-43
2023/09/28 09:51:17;;;;;;;;;;;18.80;99.90;;;;;;5116475;28;19927;-43
2023/09/28 09:53:43;;;;;;;;;;;18.80;99.90;;;;;;5116527;28;19946;-42
2023/09/28 09:56:09;;;;;;;;;;;18.80;99.90;;;;;;5116576;28;19977;-43
2023/09/28 09:58:55;;;;;;;;;;;18.90;99.90;;;;;;5116417;28;20319;-42
2023/09/28 10:01:22;;;;;;;;;;;18.90;99.90;;;;;;5115970;28;19924;-43
2023/09/28 10:03:50;;;;;;;;;;;18.90;99.90;;;;;;5116263;28;19931;-42
2023/09/28 10:06:16;;;;;;;;;;;19.00;99.90;;;;;;5116023;28;19942;-42
2023/09/28 10:08:43;;;;;;;;;;;19.00;99.90;;;;;;5116200;27;20397;-42
2023/09/28 10:11:10;;;;;;;;;;;18.90;99.90;;;;;;5115829;28;19930;-43
2023/09/28 10:13:35;;;;;;;;;;;18.90;99.90;;;;;;5116139;28;19930;-42
2023/09/28 10:16:02;;;;;;;;;;;18.90;99.90;;;;;;5115747;28;20018;-43
2023/09/28 10:18:29;;;;;;;;;;;18.90;99.90;;;;;;5116195;28;19931;-42
2023/09/28 10:20:56;;;;;;;;;;;18.90;99.90;;;;;;5115812;28;20101;-42
2023/09/28 10:23:24;;;;;;;;;;;18.90;99.90;;;;;;5115832;28;19924;-42
2023/09/28 10:25:53;;;;;;;;;;;18.90;99.90;;;;;;5115570;28;19928;-43
2023/09/28 10:28:19;;;;;;;;;;;18.90;99.90;;;;;;5115975;28;20002;-42
2023/09/28 10:30:45;;;;;;;;;;;18.90;99.90;;;;;;5115748;28;20409;-42
2023/09/28 10:33:12;;;;;;;;;;;18.90;99.90;;;;;;5115685;28;19924;-43
2023/09/28 10:35:38;;;;;;;;;;;19.00;99.90;;;;;;5115810;28;20343;-42
2023/09/28 10:38:22;;;;;;;;;;;19.00;99.90;;;;;;5115474;28;19965;-43
2023/09/28 10:40:52;;;;;;;;;;;19.00;99.90;;;;;;5115579;28;19938;-43
2023/09/28 10:43:30;;;;;;;;;;;19.00;99.90;;;;;;5115529;27;19923;-43
2023/09/28 10:45:56;;;;;;;;;;;19.00;99.90;;;;;;5114744;28;19924;-43
2023/09/28 10:48:23;;;;;;;;;;;19.00;99.90;;;;;;5115354;28;19924;-43
2023/09/28 10:50:51;;;;;;;;;;;19.00;99.90;;;;;;5115157;28;19928;-43
2023/09/28 10:53:17;;;;;;;;;;;18.90;99.90;;;;;;5114294;28;19924;-42
2023/09/28 10:55:43;;;;;;;;;;;18.90;99.90;;;;;;5115337;27;19924;-43
2023/09/28 10:58:08;;;;;;;;;;;18.90;99.90;;;;;;5115132;28;19931;-42
2023/09/28 11:00:34;;;;;;;;;;;18.90;99.90;;;;;;5114212;28;19975;-42
2023/09/28 11:03:00;;;;;;;;;;;18.90;99.90;;;;;;5114985;28;19927;-42
2023/09/28 11:05:26;;;;;;;;;;;18.90;99.90;;;;;;5114917;28;19969;-42
2023/09/28 11:07:52;;;;;;;;;;;18.90;99.90;;;;;;5114904;28;19928;-43
2023/09/28 11:10:18;;;;;;;;;;;18.90;99.90;;;;;;5114861;28;19923;-43
2023/09/28 11:12:44;;;;;;;;;;;18.90;99.90;;;;;;5114880;28;19928;-43
2023/09/28 11:15:14;;;;;;;;;;;18.90;99.90;;;;;;5113886;28;20367;-42
2023/09/28 11:17:40;;;;;;;;;;;18.90;99.90;;;;;;5114904;28;19986;-43
2023/09/28 11:20:06;;;;;;;;;;;18.90;99.90;;;;;;5114797;28;19928;-42
2023/09/28 11:22:32;;;;;;;;;;;18.90;99.90;;;;;;5114937;28;20348;-43
2023/09/28 11:24:58;;;;;;;;;;;18.90;99.90;;;;;;5115351;28;19979;-42
2023/09/28 11:27:23;;;;;;;;;;;18.90;99.90;;;;;;5114741;28;20309;-42
2023/09/28 11:29:56;;;;;;;;;;;18.90;99.90;;;;;;5114717;28;20289;-43
2023/09/28 11:32:21;;;;;;;;;;;18.90;99.90;;;;;;5114436;28;19923;-43
2023/09/28 11:34:47;;;;;;;;;;;18.90;99.90;;;;;;5114823;28;19968;-43
2023/09/28 11:37:14;;;;;;;;;;;18.90;99.90;;;;;;5114705;28;19968;-43
2023/09/28 11:39:40;;;;;;;;;;;18.90;99.90;;;;;;5114587;28;19924;-43
2023/09/28 11:42:07;;;;;;;;;;;18.90;99.90;;;;;;5114625;28;19931;-42
2023/09/28 11:44:32;;;;;;;;;;;18.90;99.90;;;;;;5114334;28;19924;-42
2023/09/28 11:46:58;;;;;;;;;;;18.80;99.90;;;;;;5114306;28;19946;-42
2023/09/28 11:49:24;;;;;;;;;;;18.80;99.90;;;;;;5114495;28;19923;-42
2023/09/28 11:51:53;;;;;;;;;;;18.80;99.90;;;;;;5114850;28;20002;-42
2023/09/28 11:54:19;;;;;;;;;;;18.80;99.90;;;;;;5114265;28;19969;-43
2023/09/28 11:56:45;;;;;;;;;;;18.90;99.90;;;;;;5114494;28;20019;-44
2023/09/28 11:59:15;;;;;;;;;;;18.80;99.90;;;;;;5116580;28;19978;-43
2023/09/28 12:01:44;;;;;;;;;;;18.90;99.90;;;;;;5118609;28;19924;-43
2023/09/28 12:04:09;;;;;;;;;;;18.90;99.90;;;;;;5118680;28;19924;-43
2023/09/28 12:06:35;;;;;;;;;;;18.90;99.90;;;;;;5118605;28;19931;-44
2023/09/28 12:09:01;;;;;;;;;;;18.90;99.90;;;;;;5134772;27;19924;-43
2023/09/28 12:11:26;;;;;;;;;;;18.90;99.90;;;;;;5118451;28;19931;-43
2023/09/28 12:13:52;;;;;;;;;;;19.00;99.90;;;;;;5118335;28;19974;-43
2023/09/28 12:16:19;;;;;;;;;;;19.00;99.90;;;;;;5118266;28;19924;-44
2023/09/28 12:18:45;;;;;;;;;;;19.10;99.90;;;;;;5118957;28;19924;-41
2023/09/28 12:21:11;;;;;;;;;;;19.10;99.90;;;;;;5118237;28;20371;-42
2023/09/28 12:23:37;;;;;;;;;;;19.10;99.90;;;;;;5117135;28;19931;-41
2023/09/28 12:26:03;;;;;;;;;;;19.10;99.90;;;;;;5117952;28;19924;-41
2023/09/28 12:28:28;;;;;;;;;;;19.10;99.90;;;;;;5117949;28;19967;-41
2023/09/28 12:30:54;;;;;;;;;;;19.10;99.90;;;;;;5117860;28;19928;-40
2023/09/28 12:33:21;;;;;;;;;;;19.10;99.90;;;;;;5118097;28;19949;-41
2023/09/28 12:35:47;;;;;;;;;;;19.10;99.90;;;;;;5117993;28;20367;-41
2023/09/28 12:38:13;;;;;;;;;;;19.00;99.90;;;;;;5117804;28;19946;-41
2023/09/28 12:40:39;;;;;;;;;;;19.00;99.90;;;;;;5117815;28;19931;-41
2023/09/28 12:43:05;;;;;;;;;;;19.00;99.90;;;;;;5117699;28;19924;-40
2023/09/28 12:45:34;;;;;;;;;;;19.00;99.90;;;;;;5117663;28;20310;-40
2023/09/28 12:48:00;;;;;;;;;;;18.90;99.90;;;;;;5117773;28;20306;-42
2023/09/28 12:50:26;;;;;;;;;;;18.90;99.90;;;;;;5117637;28;19930;-41
2023/09/28 12:52:53;;;;;;;;;;;18.90;99.90;;;;;;5117382;28;19976;-42
2023/09/28 12:55:19;;;;;;;;;;;18.90;99.90;;;;;;5117479;28;20412;-42
2023/09/28 12:57:44;;;;;;;;;;;18.90;99.90;;;;;;5117350;28;19924;-40
2023/09/28 13:00:11;;;;;;;;;;;18.90;99.90;;;;;;5117254;28;19923;-41
2023/09/28 13:02:37;;;;;;;;;;;19.00;99.90;;;;;;5117552;28;19923;-41
2023/09/28 13:05:04;;;;;;;;;;;19.00;99.90;;;;;;5117431;28;19924;-41
2023/09/28 13:07:30;;;;;;;;;;;19.00;99.90;;;;;;5117417;28;20435;-40
2023/09/28 13:09:55;;;;;;;;;;;19.00;99.90;;;;;;5115379;28;19924;-41
2023/09/28 13:12:22;;;;;;;;;;;19.10;99.90;;;;;;5117067;28;19928;-41
2023/09/28 13:14:49;;;;;;;;;;;19.10;99.90;;;;;;5117029;28;19927;-40
2023/09/28 13:17:16;;;;;;;;;;;19.10;99.90;;;;;;5117180;28;19927;-41
2023/09/28 13:19:43;;;;;;;;;;;19.10;99.90;;;;;;5117212;28;19954;-41
2023/09/28 13:22:09;;;;;;;;;;;19.10;99.90;;;;;;5117080;28;20430;-40
2023/09/28 13:24:36;;;;;;;;;;;19.10;99.90;;;;;;5117132;28;19973;-41
2023/09/28 13:27:05;;;;;;;;;;;19.10;99.90;;;;;;5115695;28;20377;-41
2023/09/28 13:29:31;;;;;;;;;;;19.10;99.90;;;;;;5117031;28;20330;-41
2023/09/28 13:31:56;;;;;;;;;;;19.10;99.90;;;;;;5116850;28;19924;-41
2023/09/28 13:34:22;;;;;;;;;;;19.10;99.90;;;;;;5116827;28;19930;-41
2023/09/28 13:36:48;;;;;;;;;;;19.10;99.90;;;;;;5117081;28;19924;-41
2023/09/28 13:39:33;;;;;;;;;;;19.10;99.90;;;;;;5116860;28;19970;-41
2023/09/28 13:42:06;;;;;;;;;;;19.10;99.90;;;;;;5116630;28;20312;-41
2023/09/28 13:44:32;;;;;;;;;;;19.10;99.90;;;;;;5116892;28;19924;-41
2023/09/28 13:47:00;;;;;;;;;;;19.10;99.90;;;;;;5116579;28;19924;-41
2023/09/28 13:49:26;;;;;;;;;;;19.10;99.90;;;;;;5115900;28;19928;-41
2023/09/28 13:51:52;;;;;;;;;;;19.10;99.90;;;;;;5115294;28;20395;-41
2023/09/28 13:54:18;;;;;;;;;;;19.10;99.90;;;;;;5116714;28;19981;-41
2023/09/28 13:56:46;;;;;;;;;;;19.10;99.90;;;;;;5116625;28;19923;-41
2023/09/28 13:59:12;;;;;;;;;;;19.10;99.90;;;;;;5116322;28;19923;-40
2023/09/28 14:01:40;;;;;;;;;;;19.10;99.90;;;;;;5116561;27;19923;-40
2023/09/28 14:04:06;;;;;;;;;;;19.10;99.90;;;;;;5116229;28;19924;-41
2023/09/28 14:06:32;;;;;;;;;;;19.10;99.90;;;;;;5116191;28;20014;-41
2023/09/28 14:08:59;;;;;;;;;;;19.10;99.90;;;;;;5115860;28;20379;-40
2023/09/28 14:11:25;;;;;;;;;;;19.10;99.90;;;;;;5116114;28;19923;-41